Погода Фоз-до-Игуасуна неделю

Парана, Бразилия

22 - 28 июля
  • 22июля
    Сегодня
    +14°
    +27°
    Ясно и безоблачно
    ВремяПогодаТемператураВлажностьДавлениеВетер, м/сВероятность осадков
    00:00Ясно и безоблачно+18°C96 %750 мм2.0 м/с5 %
    03:00Ясно и безоблачно+15°C97 %750 мм2.0 м/с5 %
    06:00Практически безоблачно+14°C97 %750 мм2.6 м/с5 %
    09:00Практически безоблачно+16°C90 %751 мм2.4 м/с5 %
    12:00Ясно и безоблачно+23°C72 %752 мм2.4 м/с5 %
    15:00Ясно и безоблачно+26°C54 %750 мм2.2 м/с5 %
    18:00Ясно и безоблачно+22°C77 %750 мм1.9 м/с5 %
    21:00Ясно и безоблачно+19°C78 %750 мм2.4 м/с5 %
  • 23июля
    Вторник
    +14°
    +27°
    Небольшая облачность
    ВремяПогодаТемператураВлажностьДавлениеВетер, м/сВероятность осадков
    00:00Ясно и безоблачно+17°C80 %751 мм2.3 м/с5 %
    03:00Ясно и безоблачно+16°C86 %750 мм2.2 м/с5 %
    06:00Ясно и безоблачно+15°C87 %751 мм2.6 м/с5 %
    09:00Небольшая облачность+16°C82 %752 мм2.6 м/с5 %
    12:00Облачно с прояснениями+23°C66 %752 мм2.7 м/с5 %
    15:00Небольшая облачность+26°C58 %749 мм2.7 м/с5 %
    18:00Облачно с прояснениями+22°C83 %749 мм2.1 м/с5 %
    21:00Облачно с прояснениями+19°C88 %749 мм2.5 м/с5 %
  • 24июля
    Среда
    +17°
    +27°
    Небольшая облачность
    ВремяПогодаТемператураВлажностьДавлениеВетер, м/сВероятность осадков
    00:00Облачно с прояснениями+19°C72 %749 мм2.5 м/с5 %
    03:00Небольшая облачность+17°C78 %748 мм2.1 м/с5 %
    06:00Небольшая облачность+16°C79 %748 мм2.8 м/с5 %
    09:00Небольшая облачность+17°C75 %750 мм2.8 м/с5 %
    12:00Практически безоблачно+24°C56 %750 мм3.4 м/с5 %
    15:00Небольшая облачность+27°C53 %748 мм3.3 м/с5 %
    18:00Небольшая облачность+23°C73 %747 мм2.1 м/с5 %
    21:00Ясно и безоблачно+21°C81 %748 мм2.5 м/с5 %
  • 25июля
    Четверг
    +17°
    +28°
    Ясно и безоблачно
    ВремяПогодаТемператураВлажностьДавлениеВетер, м/сВероятность осадков
    00:00Ясно и безоблачно+19°C81 %749 мм2.2 м/с5 %
    03:00Ясно и безоблачно+18°C81 %748 мм2.2 м/с5 %
    06:00Практически безоблачно+19°C80 %747 мм3.1 м/с5 %
    09:00Ясно и безоблачно+20°C73 %749 мм3.3 м/с5 %
    12:00Ясно и безоблачно+25°C62 %749 мм3.1 м/с5 %
    15:00Ясно и безоблачно+28°C58 %747 мм2.5 м/с5 %
    18:00Ясно и безоблачно+24°C76 %746 мм1.9 м/с5 %
    21:00Небольшая облачность+21°C89 %746 мм2.2 м/с5 %
Мы используем cookies
Соглашаюсь